Time;durP1;ratioP1;P1;durP2;ratioP2;P2;SDS_P1;SDS_P2;PMS_P1;PMS_P2;Temp;Humidity;BMP_temperature;BMP_pressure;BME280_temperature;BME280_humidity;BME280_pressure;Samples;Min_cycle;Max_cycle;Signal;HPM_P1;HPM_P2
2022/03/25 00:00:48;;;;;;;18.55;12.00;;;;;;;;;;4951510;28;20415;-85
2022/03/25 00:03:14;;;;;;;12.07;5.15;;;;;;;;;;4955815;29;20499;-86
2022/03/25 00:05:41;;;;;;;11.50;4.13;;;;;;;;;;4948382;29;20043;-85
2022/03/25 00:08:08;;;;;;;21.50;7.35;;;;;;;;;;4948376;29;20063;-84
2022/03/25 00:10:34;;;;;;;3.92;3.55;;;;;;;;;;4956559;28;20042;-84
2022/03/25 00:13:00;;;;;;;1.45;1.35;;;;;;;;;;4951171;28;20049;-85
2022/03/25 00:15:26;;;;;;;9.60;5.82;;;;;;;;;;4959000;28;20038;-85
2022/03/25 00:17:52;;;;;;;5.03;4.10;;;;;;;;;;4951306;28;20551;-85
2022/03/25 00:20:19;;;;;;;2.05;1.55;;;;;;;;;;4948630;28;20070;-84
2022/03/25 00:22:45;;;;;;;6.03;4.50;;;;;;;;;;4943431;29;20047;-85
2022/03/25 00:25:13;;;;;;;3.42;2.50;;;;;;;;;;4954604;28;20050;-85
2022/03/25 00:27:39;;;;;;;4.65;3.20;;;;;;;;;;4959250;28;20096;-86
2022/03/25 00:30:06;;;;;;;9.10;4.72;;;;;;;;;;4970241;28;20533;-85
2022/03/25 00:32:31;;;;;;;16.88;3.92;;;;;;;;;;4953386;28;20089;-84
2022/03/25 00:34:59;;;;;;;0.47;0.47;;;;;;;;;;4951244;28;20042;-86
2022/03/25 00:37:25;;;;;;;1.33;1.20;;;;;;;;;;4950477;28;20046;-85
2022/03/25 00:39:52;;;;;;;1.55;1.45;;;;;;;;;;4950783;28;20039;-86
2022/03/25 00:42:18;;;;;;;12.15;6.72;;;;;;;;;;4957134;28;20046;-85
2022/03/25 00:44:47;;;;;;;15.82;6.30;;;;;;;;;;4953881;28;20038;-84
2022/03/25 00:47:16;;;;;;;7.05;4.82;;;;;;;;;;4956688;28;20049;-84
2022/03/25 00:49:42;;;;;;;15.30;7.57;;;;;;;;;;4956814;28;20050;-84
2022/03/25 00:52:11;;;;;;;26.02;13.27;;;;;;;;;;4953863;28;20419;-84
2022/03/25 00:54:39;;;;;;;11.13;5.40;;;;;;;;;;4950510;28;20052;-84
2022/03/25 00:57:05;;;;;;;67.90;14.40;;;;;;;;;;4957253;28;20050;-86
2022/03/25 00:59:31;;;;;;;12.73;5.35;;;;;;;;;;4948157;28;20085;-85
2022/03/25 01:01:58;;;;;;;20.08;10.75;;;;;;;;;;4946096;28;20507;-84
2022/03/25 01:04:24;;;;;;;17.23;9.88;;;;;;;;;;4955305;28;20094;-86
2022/03/25 01:06:50;;;;;;;5.22;3.63;;;;;;;;;;4954611;28;20408;-86
2022/03/25 01:09:16;;;;;;;19.92;7.75;;;;;;;;;;4944016;28;20180;-86
2022/03/25 01:15:05;;;;;;;11.85;6.15;;;;;;;;;;4998962;28;20028;-85
2022/03/25 01:17:31;;;;;;;10.45;6.57;;;;;;;;;;4947481;28;20049;-85
2022/03/25 01:19:57;;;;;;;21.10;11.40;;;;;;;;;;4951541;28;20046;-85
2022/03/25 01:22:23;;;;;;;6.15;2.47;;;;;;;;;;4954696;28;20053;-85
2022/03/25 01:24:49;;;;;;;47.97;13.18;;;;;;;;;;4954852;28;20034;-85
2022/03/25 01:27:17;;;;;;;57.42;11.48;;;;;;;;;;4949779;28;20043;-84
2022/03/25 01:29:43;;;;;;;87.40;12.80;;;;;;;;;;4950008;28;20085;-84
2022/03/25 01:32:10;;;;;;;24.30;5.80;;;;;;;;;;4949196;28;20045;-84
2022/03/25 01:34:37;;;;;;;91.28;8.40;;;;;;;;;;4956796;28;20086;-85
2022/03/25 01:37:03;;;;;;;70.60;5.03;;;;;;;;;;4965404;28;20042;-84
2022/03/25 01:39:29;;;;;;;3.08;2.00;;;;;;;;;;4961845;28;20048;-86
2022/03/25 01:41:55;;;;;;;20.52;9.45;;;;;;;;;;4955428;28;20165;-85
2022/03/25 01:44:29;;;;;;;45.67;6.50;;;;;;;;;;4955789;28;20052;-86
2022/03/25 01:46:57;;;;;;;41.47;4.68;;;;;;;;;;4937663;28;20048;-85
2022/03/25 01:49:23;;;;;;;28.45;5.60;;;;;;;;;;4943909;28;20532;-85
2022/03/25 01:51:53;;;;;;;145.43;11.00;;;;;;;;;;4961813;28;20042;-85
2022/03/25 01:54:22;;;;;;;40.92;11.73;;;;;;;;;;4956861;28;20073;-85
2022/03/25 01:56:51;;;;;;;113.15;17.65;;;;;;;;;;4970228;28;20052;-85
2022/03/25 01:59:17;;;;;;;9.70;5.05;;;;;;;;;;4943274;28;20130;-85
2022/03/25 02:01:43;;;;;;;143.32;14.68;;;;;;;;;;4971261;28;20520;-84
2022/03/25 02:04:13;;;;;;;48.60;7.95;;;;;;;;;;4945803;28;20043;-86
2022/03/25 02:06:39;;;;;;;86.00;9.15;;;;;;;;;;4943667;28;20507;-85
2022/03/25 02:09:05;;;;;;;284.35;18.10;;;;;;;;;;4954122;28;20043;-85
2022/03/25 02:11:32;;;;;;;101.50;8.35;;;;;;;;;;4949181;28;20046;-85
2022/03/25 02:13:58;;;;;;;41.13;6.65;;;;;;;;;;4977306;28;20228;-85
2022/03/25 02:16:42;;;;;;;88.10;9.88;;;;;;;;;;4955409;28;20042;-85
2022/03/25 02:19:12;;;;;;;122.15;11.60;;;;;;;;;;4964570;28;20386;-86
2022/03/25 02:21:39;;;;;;;102.70;7.47;;;;;;;;;;4942453;28;20058;-85
2022/03/25 02:24:06;;;;;;;35.40;3.42;;;;;;;;;;4957698;28;20049;-85
2022/03/25 02:26:33;;;;;;;2.70;2.05;;;;;;;;;;4961637;28;20049;-84
2022/03/25 02:29:00;;;;;;;3.88;3.10;;;;;;;;;;4946237;28;20125;-84
2022/03/25 02:31:26;;;;;;;7.60;3.08;;;;;;;;;;4950414;28;20038;-84
2022/03/25 02:34:03;;;;;;;5.35;3.55;;;;;;;;;;4959418;28;20042;-85
2022/03/25 02:36:29;;;;;;;69.68;5.55;;;;;;;;;;4954842;28;20397;-85
2022/03/25 02:38:55;;;;;;;3.15;2.38;;;;;;;;;;4951522;28;20562;-85
2022/03/25 02:41:21;;;;;;;22.70;4.15;;;;;;;;;;4955986;28;20483;-86
2022/03/25 02:43:48;;;;;;;68.30;7.35;;;;;;;;;;4948155;28;20407;-85
2022/03/25 02:46:14;;;;;;;56.92;4.78;;;;;;;;;;4954599;28;20038;-85
2022/03/25 02:48:40;;;;;;;0.60;0.60;;;;;;;;;;4952792;28;20069;-84
2022/03/25 02:51:06;;;;;;;1.52;1.30;;;;;;;;;;4950610;28;20050;-84
2022/03/25 02:53:32;;;;;;;55.00;3.58;;;;;;;;;;4952854;28;20045;-85
2022/03/25 02:56:01;;;;;;;5.93;1.38;;;;;;;;;;4942802;28;20050;-86
2022/03/25 02:58:27;;;;;;;1.80;1.20;;;;;;;;;;4946566;28;20043;-86
2022/03/25 03:00:53;;;;;;;0.77;0.68;;;;;;;;;;4948337;28;20035;-85
2022/03/25 03:03:19;;;;;;;388.25;18.00;;;;;;;;;;4949223;28;20040;-85
2022/03/25 03:05:45;;;;;;;46.60;8.02;;;;;;;;;;4954029;28;20153;-85
2022/03/25 03:08:13;;;;;;;70.53;6.18;;;;;;;;;;4954235;28;20038;-83
2022/03/25 03:10:39;;;;;;;5.15;2.97;;;;;;;;;;4948816;28;20121;-84
2022/03/25 03:13:06;;;;;;;2.83;1.50;;;;;;;;;;4939507;28;20053;-83
2022/03/25 03:15:33;;;;;;;5.13;3.42;;;;;;;;;;4970164;28;20121;-84
2022/03/25 03:17:59;;;;;;;6.90;4.57;;;;;;;;;;4948448;28;20049;-84
2022/03/25 03:20:26;;;;;;;5.95;3.15;;;;;;;;;;4954333;28;20527;-84
2022/03/25 03:22:52;;;;;;;4.00;1.90;;;;;;;;;;4941795;28;20049;-86
2022/03/25 03:25:18;;;;;;;2.15;1.77;;;;;;;;;;4942637;28;20066;-86
2022/03/25 03:27:44;;;;;;;0.88;0.80;;;;;;;;;;4954774;28;20062;-86
2022/03/25 03:30:11;;;;;;;2.83;1.42;;;;;;;;;;4942555;28;20050;-85
2022/03/25 03:32:37;;;;;;;0.38;0.38;;;;;;;;;;4953567;28;20042;-86
2022/03/25 03:35:04;;;;;;;42.25;8.85;;;;;;;;;;4949345;28;20054;-85
2022/03/25 03:37:30;;;;;;;2.45;2.05;;;;;;;;;;4948191;28;20045;-85
2022/03/25 03:39:56;;;;;;;1.05;0.70;;;;;;;;;;4946221;28;20093;-85
2022/03/25 03:42:22;;;;;;;44.33;2.17;;;;;;;;;;4950136;28;20034;-85
2022/03/25 03:44:48;;;;;;;1.48;1.38;;;;;;;;;;4958378;28;20062;-85
2022/03/25 03:47:14;;;;;;;1.25;0.90;;;;;;;;;;4954437;28;20089;-85
2022/03/25 03:49:41;;;;;;;0.50;0.50;;;;;;;;;;4945873;28;20447;-85
2022/03/25 03:52:11;;;;;;;0.82;0.82;;;;;;;;;;4947510;28;20038;-84
2022/03/25 03:54:38;;;;;;;0.93;0.93;;;;;;;;;;4949673;28;20042;-85
2022/03/25 03:57:04;;;;;;;2.70;1.67;;;;;;;;;;4954759;28;20050;-85
2022/03/25 03:59:30;;;;;;;1.17;0.90;;;;;;;;;;4951114;28;20101;-85
2022/03/25 04:01:56;;;;;;;1.20;1.08;;;;;;;;;;4974435;28;20047;-85
2022/03/25 04:04:25;;;;;;;0.50;0.50;;;;;;;;;;4961506;28;20045;-83
2022/03/25 04:06:51;;;;;;;1.33;0.82;;;;;;;;;;4948602;28;20035;-85
2022/03/25 04:09:17;;;;;;;0.90;0.90;;;;;;;;;;4954600;28;20459;-85
2022/03/25 04:11:43;;;;;;;2.45;1.73;;;;;;;;;;4958354;28;20101;-84
2022/03/25 04:14:09;;;;;;;1.92;1.63;;;;;;;;;;4944753;28;20487;-85
2022/03/25 04:16:35;;;;;;;1.05;0.98;;;;;;;;;;4951021;28;20113;-84
2022/03/25 04:19:01;;;;;;;0.95;0.77;;;;;;;;;;4946789;28;20116;-85
2022/03/25 04:21:27;;;;;;;2.05;1.23;;;;;;;;;;4957756;28;20053;-85
2022/03/25 04:23:53;;;;;;;14.88;2.58;;;;;;;;;;4977926;28;20081;-85
2022/03/25 04:26:19;;;;;;;4.20;2.58;;;;;;;;;;4958380;28;20066;-85
2022/03/25 04:28:45;;;;;;;12.30;3.65;;;;;;;;;;4957649;28;20050;-85
2022/03/25 04:31:12;;;;;;;72.82;6.50;;;;;;;;;;4950461;28;20122;-84
2022/03/25 04:33:38;;;;;;;2.50;2.28;;;;;;;;;;4952051;28;20553;-84
2022/03/25 04:36:04;;;;;;;41.47;4.25;;;;;;;;;;4957328;28;20054;-85
2022/03/25 04:38:30;;;;;;;363.30;17.48;;;;;;;;;;4950491;28;20134;-85
2022/03/25 04:40:56;;;;;;;266.20;12.25;;;;;;;;;;4958038;28;20038;-85
2022/03/25 04:43:26;;;;;;;378.13;25.60;;;;;;;;;;4941967;29;20051;-85
2022/03/25 04:45:52;;;;;;;38.90;3.65;;;;;;;;;;4954785;28;20045;-85
2022/03/25 04:48:18;;;;;;;281.20;16.58;;;;;;;;;;4945221;28;20082;-85
2022/03/25 04:50:44;;;;;;;258.13;16.83;;;;;;;;;;4963961;28;20042;-86
2022/03/25 04:53:10;;;;;;;1.15;1.08;;;;;;;;;;4951353;28;20053;-85
2022/03/25 04:55:37;;;;;;;408.70;18.73;;;;;;;;;;4958119;28;20420;-85
2022/03/25 04:58:03;;;;;;;159.20;12.45;;;;;;;;;;4956708;28;20049;-85
2022/03/25 05:00:29;;;;;;;1.42;1.02;;;;;;;;;;4957504;28;20046;-86
2022/03/25 05:02:55;;;;;;;1.85;1.25;;;;;;;;;;4951181;28;20109;-85
2022/03/25 05:05:21;;;;;;;0.60;0.60;;;;;;;;;;4948367;28;20038;-86
2022/03/25 05:07:50;;;;;;;1.65;1.40;;;;;;;;;;4951675;28;20098;-86
2022/03/25 05:10:16;;;;;;;57.45;6.93;;;;;;;;;;4969835;28;20043;-86
2022/03/25 05:12:43;;;;;;;1.08;0.98;;;;;;;;;;4965764;28;20046;-85
2022/03/25 05:15:12;;;;;;;81.28;8.60;;;;;;;;;;4956040;28;20042;-85
2022/03/25 05:17:45;;;;;;;78.75;4.68;;;;;;;;;;4950770;28;20048;-85
2022/03/25 05:20:11;;;;;;;0.40;0.40;;;;;;;;;;4973508;28;20038;-85
2022/03/25 05:22:37;;;;;;;1.30;1.13;;;;;;;;;;4950589;28;20042;-84
2022/03/25 05:25:07;;;;;;;3.30;2.05;;;;;;;;;;4950230;28;20044;-85
2022/03/25 05:27:43;;;;;;;187.18;15.82;;;;;;;;;;4964153;28;20046;-86
2022/03/25 05:30:12;;;;;;;33.08;2.85;;;;;;;;;;4951439;29;20130;-85
2022/03/25 05:32:39;;;;;;;0.52;0.52;;;;;;;;;;4954311;29;20047;-86
2022/03/25 05:35:08;;;;;;;2.28;1.83;;;;;;;;;;4980464;28;20054;-86
2022/03/25 05:37:35;;;;;;;89.32;6.18;;;;;;;;;;4957705;28;20043;-85
2022/03/25 05:40:01;;;;;;;4.28;2.90;;;;;;;;;;4957419;28;20070;-86
2022/03/25 05:42:27;;;;;;;190.77;13.15;;;;;;;;;;4964120;28;20045;-85
2022/03/25 05:44:53;;;;;;;0.50;0.50;;;;;;;;;;4942205;29;20046;-86
2022/03/25 05:47:19;;;;;;;52.75;3.47;;;;;;;;;;4946762;29;20043;-85
2022/03/25 05:49:46;;;;;;;123.85;6.25;;;;;;;;;;4948335;29;20047;-86
2022/03/25 05:52:13;;;;;;;43.90;6.57;;;;;;;;;;4947600;29;20070;-85
2022/03/25 05:54:40;;;;;;;16.75;2.22;;;;;;;;;;4949692;28;20526;-86
2022/03/25 05:57:06;;;;;;;1.73;1.45;;;;;;;;;;4957095;28;20042;-86
2022/03/25 05:59:34;;;;;;;2.30;1.95;;;;;;;;;;4957404;28;20046;-86
2022/03/25 06:02:00;;;;;;;1.00;0.93;;;;;;;;;;4953366;28;20042;-86
2022/03/25 06:04:26;;;;;;;5.63;2.15;;;;;;;;;;4957896;28;20129;-86
2022/03/25 06:06:52;;;;;;;211.65;10.52;;;;;;;;;;4956925;28;20125;-86
2022/03/25 06:09:18;;;;;;;2.08;1.38;;;;;;;;;;4954409;28;20092;-85
2022/03/25 06:11:44;;;;;;;2.35;1.13;;;;;;;;;;4947067;28;20818;-86
2022/03/25 06:14:10;;;;;;;2.97;2.22;;;;;;;;;;4967276;28;20057;-85
2022/03/25 06:16:36;;;;;;;9.98;2.45;;;;;;;;;;4953106;28;20535;-84
2022/03/25 06:19:02;;;;;;;1.33;1.20;;;;;;;;;;4960111;28;20085;-85
2022/03/25 06:21:28;;;;;;;0.52;0.52;;;;;;;;;;4962314;28;20051;-84
2022/03/25 06:23:54;;;;;;;0.70;0.70;;;;;;;;;;4960550;28;20030;-84
2022/03/25 06:26:20;;;;;;;0.70;0.70;;;;;;;;;;4950256;28;20496;-84
2022/03/25 06:28:46;;;;;;;1.38;1.23;;;;;;;;;;4960370;28;20049;-84
2022/03/25 06:31:13;;;;;;;1.23;0.98;;;;;;;;;;4948001;28;20069;-85
2022/03/25 06:33:39;;;;;;;2.22;2.03;;;;;;;;;;4963938;28;20149;-84
2022/03/25 06:36:07;;;;;;;0.80;0.80;;;;;;;;;;4950250;28;20053;-85
2022/03/25 06:38:38;;;;;;;0.70;0.70;;;;;;;;;;4948813;28;20042;-85
2022/03/25 06:41:04;;;;;;;1.25;1.02;;;;;;;;;;4953587;28;20043;-85
2022/03/25 06:43:30;;;;;;;0.88;0.88;;;;;;;;;;4951418;28;20084;-85
2022/03/25 06:45:56;;;;;;;4.60;2.47;;;;;;;;;;4964110;28;20074;-85
2022/03/25 06:48:23;;;;;;;7.70;4.65;;;;;;;;;;4942541;28;20409;-85
2022/03/25 06:50:49;;;;;;;6.10;3.67;;;;;;;;;;4948531;28;20053;-86
2022/03/25 06:53:15;;;;;;;6.30;3.92;;;;;;;;;;4943736;28;20046;-86
2022/03/25 06:55:43;;;;;;;1.65;1.20;;;;;;;;;;4959480;28;20050;-85
2022/03/25 06:58:09;;;;;;;4.50;2.85;;;;;;;;;;4955457;28;20066;-85
2022/03/25 07:00:36;;;;;;;12.85;5.15;;;;;;;;;;4943847;28;20513;-86
2022/03/25 07:03:02;;;;;;;13.57;6.30;;;;;;;;;;4950044;28;20046;-86
2022/03/25 07:05:30;;;;;;;6.03;3.17;;;;;;;;;;4962208;28;20041;-86
2022/03/25 07:07:56;;;;;;;9.95;5.45;;;;;;;;;;4967206;28;20046;-85
2022/03/25 07:10:23;;;;;;;16.45;7.07;;;;;;;;;;4958283;28;20086;-85
2022/03/25 07:12:51;;;;;;;4.40;2.65;;;;;;;;;;4951646;28;20046;-85
2022/03/25 07:15:17;;;;;;;8.35;3.08;;;;;;;;;;4949863;28;20066;-85
2022/03/25 07:17:52;;;;;;;4.60;2.95;;;;;;;;;;4963121;28;20070;-86
2022/03/25 07:20:19;;;;;;;6.40;3.70;;;;;;;;;;4950216;28;20069;-86
2022/03/25 07:22:49;;;;;;;0.40;0.40;;;;;;;;;;4962181;28;20039;-85
2022/03/25 07:25:15;;;;;;;2.05;1.85;;;;;;;;;;4944459;28;20532;-86
2022/03/25 07:27:42;;;;;;;4.60;3.35;;;;;;;;;;4949652;28;20062;-86
2022/03/25 07:30:08;;;;;;;1.55;1.45;;;;;;;;;;4953239;28;20484;-86
2022/03/25 07:32:34;;;;;;;19.58;9.55;;;;;;;;;;4965838;28;20042;-86
2022/03/25 07:35:00;;;;;;;45.30;14.35;;;;;;;;;;4966226;28;20081;-85
2022/03/25 07:37:27;;;;;;;28.80;13.23;;;;;;;;;;4947137;28;20038;-86
2022/03/25 07:39:53;;;;;;;22.73;10.50;;;;;;;;;;4953593;28;20522;-85
2022/03/25 07:42:19;;;;;;;3.05;1.75;;;;;;;;;;4944366;29;20054;-86
2022/03/25 07:44:46;;;;;;;18.33;8.98;;;;;;;;;;4945672;29;20035;-86
2022/03/25 07:47:13;;;;;;;24.38;9.55;;;;;;;;;;4968165;28;20034;-86
2022/03/25 07:49:40;;;;;;;39.92;19.40;;;;;;;;;;4960112;28;20697;-86
2022/03/25 07:52:07;;;;;;;31.00;15.60;;;;;;;;;;4947945;28;20106;-87
2022/03/25 07:54:33;;;;;;;25.00;11.57;;;;;;;;;;4954204;28;20046;-87
2022/03/25 07:56:59;;;;;;;46.58;18.73;;;;;;;;;;4965363;28;20133;-87
2022/03/25 07:59:28;;;;;;;36.35;17.70;;;;;;;;;;4959309;28;20089;-86
2022/03/25 08:01:55;;;;;;;12.50;5.95;;;;;;;;;;4957234;29;20043;-87
2022/03/25 08:04:23;;;;;;;25.98;11.15;;;;;;;;;;4943970;29;20049;-87
2022/03/25 08:06:50;;;;;;;11.23;6.18;;;;;;;;;;4963177;28;20042;-87
2022/03/25 08:09:16;;;;;;;50.33;23.27;;;;;;;;;;4972938;28;20126;-87
2022/03/25 08:11:42;;;;;;;38.05;18.08;;;;;;;;;;4953029;28;20077;-87
2022/03/25 08:14:08;;;;;;;22.63;11.15;;;;;;;;;;4964329;28;20285;-87
2022/03/25 08:16:35;;;;;;;31.80;16.85;;;;;;;;;;4964967;28;20078;-87
2022/03/25 08:19:01;;;;;;;24.23;10.93;;;;;;;;;;4959661;28;20047;-87
2022/03/25 08:21:27;;;;;;;8.52;5.65;;;;;;;;;;4952983;28;20521;-86
2022/03/25 08:29:22;;;;;;;14.50;8.10;;;;;;;;;;4977803;28;20062;-87
2022/03/25 08:31:48;;;;;;;22.02;10.77;;;;;;;;;;4953313;28;20047;-86
2022/03/25 08:34:16;;;;;;;36.83;18.92;;;;;;;;;;4948292;28;20054;-87
2022/03/25 08:36:43;;;;;;;26.77;10.73;;;;;;;;;;4961563;28;20043;-87
2022/03/25 08:39:09;;;;;;;36.13;15.07;;;;;;;;;;4957150;28;20042;-87
2022/03/25 08:41:35;;;;;;;33.25;15.00;;;;;;;;;;4956489;28;20051;-87
2022/03/25 08:44:01;;;;;;;4.40;3.55;;;;;;;;;;4953035;28;20101;-87
2022/03/25 08:46:28;;;;;;;28.40;13.20;;;;;;;;;;4959795;28;20102;-87
2022/03/25 08:48:54;;;;;;;4.45;2.47;;;;;;;;;;4949646;28;20043;-87
2022/03/25 08:51:20;;;;;;;27.80;13.48;;;;;;;;;;4959497;28;20523;-87
2022/03/25 08:53:46;;;;;;;15.48;6.40;;;;;;;;;;4982118;28;20038;-87
2022/03/25 08:56:13;;;;;;;9.98;4.53;;;;;;;;;;4948824;28;20035;-87
2022/03/25 08:58:39;;;;;;;9.65;4.35;;;;;;;;;;4947012;28;20483;-86
2022/03/25 09:01:05;;;;;;;20.75;10.00;;;;;;;;;;4959377;28;20042;-87
2022/03/25 09:03:32;;;;;;;19.00;9.63;;;;;;;;;;4950443;29;20102;-87
2022/03/25 09:05:58;;;;;;;26.42;12.60;;;;;;;;;;4952608;28;20039;-88
2022/03/25 09:08:24;;;;;;;29.25;9.00;;;;;;;;;;4946466;28;20035;-87
2022/03/25 09:10:51;;;;;;;39.38;10.52;;;;;;;;;;4946572;28;20150;-88
2022/03/25 09:13:17;;;;;;;23.40;9.25;;;;;;;;;;4973741;28;20096;-86
2022/03/25 09:15:43;;;;;;;30.83;14.45;;;;;;;;;;4964706;28;20046;-87
2022/03/25 09:18:09;;;;;;;30.38;13.02;;;;;;;;;;4960833;28;20053;-87
2022/03/25 09:20:35;;;;;;;3.35;2.58;;;;;;;;;;4953561;28;20038;-86
2022/03/25 09:23:01;;;;;;;31.35;15.23;;;;;;;;;;4959416;28;20093;-86
2022/03/25 09:25:27;;;;;;;18.55;8.98;;;;;;;;;;4946324;28;20484;-86
2022/03/25 09:27:53;;;;;;;32.28;11.18;;;;;;;;;;4952094;28;20101;-87
2022/03/25 09:30:19;;;;;;;29.88;14.25;;;;;;;;;;4962480;28;20046;-87
2022/03/25 09:32:45;;;;;;;40.00;16.48;;;;;;;;;;4974776;28;20047;-87
2022/03/25 09:35:13;;;;;;;27.60;12.75;;;;;;;;;;4947792;28;20038;-86
2022/03/25 09:37:40;;;;;;;26.77;13.18;;;;;;;;;;4957375;28;20068;-86
2022/03/25 09:40:08;;;;;;;16.33;8.07;;;;;;;;;;4957518;28;20042;-86
2022/03/25 09:42:35;;;;;;;16.88;5.50;;;;;;;;;;4960958;28;20093;-86
2022/03/25 09:45:01;;;;;;;7.10;3.78;;;;;;;;;;4976007;28;20066;-86
2022/03/25 09:47:30;;;;;;;3.83;1.98;;;;;;;;;;4951890;28;20042;-87
2022/03/25 09:49:56;;;;;;;9.23;3.75;;;;;;;;;;4951320;28;20496;-87
2022/03/25 09:52:26;;;;;;;12.10;5.78;;;;;;;;;;4954732;28;20105;-86
2022/03/25 09:54:52;;;;;;;27.88;13.32;;;;;;;;;;4974011;28;20129;-88
2022/03/25 09:57:26;;;;;;;8.23;4.30;;;;;;;;;;4962368;28;20043;-86
2022/03/25 09:59:52;;;;;;;11.55;4.97;;;;;;;;;;4954135;28;20049;-86
2022/03/25 10:02:18;;;;;;;17.98;8.35;;;;;;;;;;4957156;28;20030;-86
2022/03/25 10:04:45;;;;;;;9.20;4.15;;;;;;;;;;4955940;28;20095;-86
2022/03/25 10:07:16;;;;;;;33.45;11.45;;;;;;;;;;4954286;28;20050;-86
2022/03/25 10:09:42;;;;;;;22.75;9.80;;;;;;;;;;4949905;28;20049;-86
2022/03/25 10:12:27;;;;;;;20.13;8.43;;;;;;;;;;4945709;28;20996;-86
2022/03/25 10:15:12;;;;;;;34.30;11.45;;;;;;;;;;4945302;28;20042;-86
2022/03/25 10:17:48;;;;;;;18.75;9.10;;;;;;;;;;4938523;28;20043;-86
2022/03/25 10:20:14;;;;;;;17.35;7.72;;;;;;;;;;4957400;28;20046;-86
2022/03/25 10:22:56;;;;;;;19.48;9.20;;;;;;;;;;4950939;28;20039;-86
2022/03/25 10:25:32;;;;;;;21.02;9.73;;;;;;;;;;4951789;28;20043;-88
2022/03/25 10:27:58;;;;;;;27.05;12.73;;;;;;;;;;4947212;29;20444;-86
2022/03/25 10:30:38;;;;;;;6.45;2.88;;;;;;;;;;4952592;28;20046;-85
2022/03/25 10:33:14;;;;;;;9.68;4.80;;;;;;;;;;4950658;29;20044;-86
2022/03/25 10:35:53;;;;;;;5.88;2.78;;;;;;;;;;4945978;28;20050;-85
2022/03/25 10:38:20;;;;;;;23.85;9.88;;;;;;;;;;4958286;28;20038;-86
2022/03/25 10:40:53;;;;;;;6.75;2.42;;;;;;;;;;4944368;28;20685;-86
2022/03/25 10:43:31;;;;;;;7.30;3.60;;;;;;;;;;4963090;28;20462;-92
2022/03/25 10:45:59;;;;;;;1.95;0.63;;;;;;;;;;4958683;28;20039;-93
2022/03/25 10:48:31;;;;;;;4.50;2.95;;;;;;;;;;4962216;28;20400;-94
2022/03/25 10:51:03;;;;;;;6.38;2.53;;;;;;;;;;4969326;28;20042;-93
2022/03/25 10:53:30;;;;;;;14.65;7.07;;;;;;;;;;4961388;28;20076;-94
2022/03/25 10:56:11;;;;;;;13.93;7.85;;;;;;;;;;4962278;28;20061;-94
2022/03/25 10:58:38;;;;;;;13.57;6.55;;;;;;;;;;4986533;28;20053;-93
2022/03/25 11:01:10;;;;;;;23.42;9.73;;;;;;;;;;4955820;28;20038;-93
2022/03/25 11:03:37;;;;;;;2.22;1.45;;;;;;;;;;4961128;28;20048;-93
2022/03/25 11:06:15;;;;;;;10.60;4.78;;;;;;;;;;4965119;28;20043;-94
2022/03/25 11:08:42;;;;;;;19.77;9.02;;;;;;;;;;4968229;28;20034;-93
2022/03/25 11:11:20;;;;;;;21.65;8.68;;;;;;;;;;4985464;28;20098;-93
2022/03/25 11:13:49;;;;;;;22.63;12.20;;;;;;;;;;4969780;28;20049;-92
2022/03/25 11:16:16;;;;;;;22.58;8.93;;;;;;;;;;4957742;29;20071;-93
2022/03/25 11:18:46;;;;;;;12.40;5.28;;;;;;;;;;4964578;28;20034;-93
2022/03/25 11:21:16;;;;;;;24.13;9.88;;;;;;;;;;5008129;28;20094;-93
2022/03/25 11:23:46;;;;;;;32.10;15.10;;;;;;;;;;4969580;28;20102;-94
2022/03/25 11:26:15;;;;;;;35.63;15.35;;;;;;;;;;4957557;29;20397;-94
2022/03/25 11:28:45;;;;;;;19.90;9.63;;;;;;;;;;4955797;29;20039;-94
2022/03/25 11:31:11;;;;;;;15.65;7.07;;;;;;;;;;4961307;28;20047;-93
2022/03/25 11:33:56;;;;;;;26.38;12.73;;;;;;;;;;4971804;28;20489;-94
2022/03/25 11:36:33;;;;;;;26.95;12.45;;;;;;;;;;4958681;28;20077;-94
2022/03/25 11:39:27;;;;;;;16.55;7.70;;;;;;;;;;4975567;28;20038;-92
2022/03/25 11:42:02;;;;;;;16.25;4.07;;;;;;;;;;4982451;28;20042;-92
2022/03/25 11:44:29;;;;;;;3.58;1.40;;;;;;;;;;4969992;28;20042;-94
2022/03/25 11:47:06;;;;;;;15.50;5.88;;;;;;;;;;4967354;28;20050;-93
2022/03/25 11:49:33;;;;;;;21.17;8.45;;;;;;;;;;4979933;28;20050;-93
2022/03/25 11:52:24;;;;;;;3.75;2.53;;;;;;;;;;4963055;28;20042;-93
2022/03/25 11:54:55;;;;;;;27.38;8.48;;;;;;;;;;4974134;28;20046;-93
2022/03/25 11:57:23;;;;;;;33.97;14.52;;;;;;;;;;4967469;28;20051;-94
2022/03/25 11:59:52;;;;;;;17.67;8.77;;;;;;;;;;4981649;28;20404;-94
2022/03/25 12:02:29;;;;;;;14.68;7.35;;;;;;;;;;4960742;28;20081;-93
2022/03/25 12:05:07;;;;;;;2.20;1.65;;;;;;;;;;4967221;28;20053;-94
2022/03/25 12:07:33;;;;;;;26.83;12.02;;;;;;;;;;5001217;28;20082;-94
2022/03/25 12:10:03;;;;;;;15.35;6.15;;;;;;;;;;4957450;28;20089;-94
2022/03/25 12:12:48;;;;;;;30.30;12.07;;;;;;;;;;4954226;29;20050;-93
2022/03/25 12:15:17;;;;;;;9.38;4.30;;;;;;;;;;4953125;28;20049;-93
2022/03/25 12:17:46;;;;;;;34.47;13.82;;;;;;;;;;4964749;28;20089;-93
2022/03/25 12:20:13;;;;;;;24.25;10.77;;;;;;;;;;4967938;28;20042;-93
2022/03/25 12:22:42;;;;;;;21.10;10.57;;;;;;;;;;4966107;28;20045;-93
2022/03/25 12:25:10;;;;;;;6.53;5.05;;;;;;;;;;4963808;28;20121;-94
2022/03/25 12:27:39;;;;;;;24.30;9.52;;;;;;;;;;4960639;28;20057;-92
2022/03/25 12:30:13;;;;;;;19.45;8.93;;;;;;;;;;4966327;28;20118;-93
2022/03/25 12:32:43;;;;;;;17.65;6.95;;;;;;;;;;4962679;28;20073;-91
2022/03/25 12:35:10;;;;;;;22.20;11.30;;;;;;;;;;4962505;28;20047;-93
2022/03/25 12:37:39;;;;;;;17.48;7.75;;;;;;;;;;4964261;28;20133;-93
2022/03/25 12:40:34;;;;;;;22.80;8.35;;;;;;;;;;4966946;28;20047;-92
2022/03/25 12:43:05;;;;;;;38.28;10.07;;;;;;;;;;4952585;28;20043;-93
2022/03/25 12:45:41;;;;;;;24.10;9.43;;;;;;;;;;4970863;28;20076;-93
2022/03/25 12:48:13;;;;;;;25.23;10.57;;;;;;;;;;4963146;28;20077;-93
2022/03/25 12:50:56;;;;;;;25.90;11.75;;;;;;;;;;4965871;28;20098;-92
2022/03/25 12:53:25;;;;;;;19.73;7.38;;;;;;;;;;4967414;28;20057;-92
2022/03/25 12:55:55;;;;;;;22.50;9.20;;;;;;;;;;4975713;28;20499;-92
2022/03/25 12:58:24;;;;;;;23.70;9.68;;;;;;;;;;4955752;28;20078;-93
2022/03/25 13:00:55;;;;;;;19.15;5.40;;;;;;;;;;4962064;28;20047;-93
2022/03/25 13:03:23;;;;;;;29.83;10.32;;;;;;;;;;4971697;28;20042;-92
2022/03/25 13:05:55;;;;;;;17.80;8.38;;;;;;;;;;4955927;28;20049;-93
2022/03/25 13:08:24;;;;;;;11.45;3.38;;;;;;;;;;4957158;28;20035;-93
2022/03/25 13:11:00;;;;;;;7.22;3.30;;;;;;;;;;4972778;28;20050;-93
2022/03/25 13:13:37;;;;;;;8.10;3.72;;;;;;;;;;4964936;28;20101;-93
2022/03/25 13:16:05;;;;;;;27.83;13.07;;;;;;;;;;4955550;28;20496;-93
2022/03/25 13:18:38;;;;;;;12.70;5.85;;;;;;;;;;4978756;28;20074;-93
2022/03/25 13:21:05;;;;;;;16.73;8.43;;;;;;;;;;4963871;28;20047;-93
2022/03/25 13:23:32;;;;;;;23.02;8.45;;;;;;;;;;4964869;28;20131;-92
2022/03/25 13:25:59;;;;;;;22.85;9.38;;;;;;;;;;4963674;28;20531;-92
2022/03/25 13:28:35;;;;;;;0.03;0.03;;;;;;;;;;4964132;28;20062;-91
2022/03/25 13:31:03;;;;;;;20.10;7.85;;;;;;;;;;4960922;28;20047;-90
2022/03/25 13:33:31;;;;;;;14.32;5.43;;;;;;;;;;4954133;28;20071;-93
2022/03/25 13:36:04;;;;;;;17.25;6.88;;;;;;;;;;4962346;28;20104;-92
2022/03/25 13:38:36;;;;;;;21.65;8.32;;;;;;;;;;4959334;28;20404;-91
2022/03/25 13:41:08;;;;;;;17.05;6.43;;;;;;;;;;4964952;28;20074;-92
2022/03/25 13:43:45;;;;;;;13.07;6.60;;;;;;;;;;4972873;28;20048;-91
2022/03/25 13:46:12;;;;;;;13.70;5.85;;;;;;;;;;4971715;28;20042;-92
2022/03/25 13:48:41;;;;;;;8.25;3.40;;;;;;;;;;4973738;28;20062;-93
2022/03/25 13:51:24;;;;;;;15.50;4.90;;;;;;;;;;4965163;28;20042;-94
2022/03/25 13:53:57;;;;;;;10.95;3.78;;;;;;;;;;4955186;28;20122;-93
2022/03/25 13:56:24;;;;;;;12.93;4.47;;;;;;;;;;4956310;28;20066;-94
2022/03/25 13:58:50;;;;;;;9.82;3.72;;;;;;;;;;4954229;28;20134;-93
2022/03/25 14:01:17;;;;;;;11.90;3.85;;;;;;;;;;4966618;28;20574;-93
2022/03/25 14:04:01;;;;;;;25.52;5.70;;;;;;;;;;4977928;28;20070;-92
2022/03/25 14:06:33;;;;;;;12.73;5.25;;;;;;;;;;4955571;28;20039;-88
2022/03/25 14:08:59;;;;;;;11.35;4.88;;;;;;;;;;4961582;28;20105;-89
2022/03/25 14:11:33;;;;;;;3.78;1.90;;;;;;;;;;4960843;28;20034;-90
2022/03/25 14:14:03;;;;;;;20.50;7.50;;;;;;;;;;4952164;28;20035;-90
2022/03/25 14:16:33;;;;;;;11.73;3.30;;;;;;;;;;4957907;28;20042;-88
2022/03/25 14:18:59;;;;;;;11.77;4.38;;;;;;;;;;4954546;28;20041;-89
2022/03/25 14:21:26;;;;;;;9.13;3.40;;;;;;;;;;4959974;28;20400;-89
2022/03/25 14:24:36;;;;;;;11.70;3.92;;;;;;;;;;4960642;28;20403;-89
2022/03/25 14:26:42;;;;;;;13.60;4.20;;;;;;;;;;4953967;28;20042;-90
2022/03/25 14:29:08;;;;;;;8.55;2.33;;;;;;;;;;4974344;28;20050;-90
2022/03/25 14:31:38;;;;;;;8.38;3.10;;;;;;;;;;4958197;28;20477;-89
2022/03/25 14:34:04;;;;;;;11.02;3.58;;;;;;;;;;4954075;28;20504;-90
2022/03/25 14:36:31;;;;;;;10.93;4.00;;;;;;;;;;4956428;28;20042;-89
2022/03/25 14:38:57;;;;;;;13.20;3.78;;;;;;;;;;4951553;28;20495;-88
2022/03/25 14:41:30;;;;;;;1.40;1.15;;;;;;;;;;4958926;28;20038;-89
2022/03/25 14:43:56;;;;;;;2.13;0.70;;;;;;;;;;4959763;28;20121;-90
2022/03/25 14:46:23;;;;;;;12.30;2.25;;;;;;;;;;4956171;28;20458;-90